KEQY

Charlotte-Monroe Executive Airport

Monroe, North Carolina, USA
METAR KEQY 182053Z AUTO 23013G18KT 10SM SCT047 SCT060 31/20 A2992 RMK AO2 LTG DSNT NW SLP128 T03060200 56023
Observed Flight Rules
Aug-18 @ 20:53 UTC (60 minutes ago) Visual Flight Rules
Wind Visibility Clouds
230° at 13 knots
 Gusting to 18 knots
10 miles
  • Scattered at 4,700' AGL
  • Scattered at 6,000' AGL
Temperatures Readings
Current 31°C / 88°F
Dewpoint 20°C / 68°F
Humidity 52%
Altimeter 29.92" Hg
Pressure 1012.8 hPa
Elevation 212
METAR KEQY 182053Z AUTO 23013G18KT 10SM SCT047 SCT060 31/20 A2992 RMK AO2 LTG DSNT NW SLP128 T03060200 56023
Observed Flight Rules
Aug-18 @ 20:53 UTC
(60 minutes ago)
VFR
Wind Visibility
230° at 13 knots
 Gusting to 18 knots
10 miles
Clouds
  • Scattered at 4,700' AGL
  • Scattered at 6,000' AGL
Temperature Dewpoint
31°C / 88°F 20°C / 68°F
Humidity Altimeter Pressure
52% 29.92" Hg 1012.8 hPa